Time;durP1;ratioP1;P1;durP2;ratioP2;P2;SDS_P1;SDS_P2;PMS_P1;PMS_P2;Temp;Humidity;BMP_temperature;BMP_pressure;BME280_temperature;BME280_humidity;BME280_pressure;Samples;Min_cycle;Max_cycle;Signal;HPM_P1;HPM_P2
2023/06/13 00:01:32;;;;;;;7.73;7.23;;;29.50;43.60;;;;;;5012708;28;20943;-67
2023/06/13 00:04:01;;;;;;;7.63;7.13;;;29.40;43.50;;;;;;5013624;28;20799;-67
2023/06/13 00:06:29;;;;;;;8.00;7.20;;;29.40;43.50;;;;;;5012175;28;20459;-67
2023/06/13 00:08:57;;;;;;;7.97;7.37;;;29.40;43.50;;;;;;4995291;28;20479;-67
2023/06/13 00:11:24;;;;;;;7.93;6.97;;;29.40;43.50;;;;;;5011985;28;20466;-67
2023/06/13 00:13:55;;;;;;;7.33;6.63;;;29.40;44.20;;;;;;4995349;28;21094;-67
2023/06/13 00:16:25;;;;;;;7.60;6.90;;;29.30;43.50;;;;;;4993756;28;21024;-67
2023/06/13 00:18:52;;;;;;;7.50;7.00;;;29.30;43.60;;;;;;4992503;28;20409;-67
2023/06/13 00:21:20;;;;;;;7.97;7.37;;;29.30;43.60;;;;;;4992170;28;20797;-67
2023/06/13 00:23:46;;;;;;;7.07;6.47;;;29.30;43.60;;;;;;4992441;28;20410;-67
2023/06/13 00:26:12;;;;;;;8.07;7.57;;;29.20;43.40;;;;;;4992464;28;20445;-67
2023/06/13 00:28:42;;;;;;;8.10;7.50;;;29.20;43.40;;;;;;4977578;28;20433;-67
2023/06/13 00:31:10;;;;;;;7.87;7.33;;;29.20;43.50;;;;;;4976501;28;20516;-67
2023/06/13 00:33:37;;;;;;;7.90;7.30;;;29.20;43.50;;;;;;4975808;28;20417;-67
2023/06/13 00:36:05;;;;;;;8.07;7.50;;;29.20;43.50;;;;;;4993564;28;20465;-67
2023/06/13 00:38:37;;;;;;;8.23;7.63;;;29.10;43.50;;;;;;4991795;28;20467;-67
2023/06/13 00:41:05;;;;;;;7.63;7.07;;;29.10;43.40;;;;;;4992258;28;20417;-67
2023/06/13 00:43:34;;;;;;;7.60;7.10;;;29.10;43.40;;;;;;4976197;28;20491;-67
2023/06/13 00:46:08;;;;;;;7.70;7.10;;;29.10;43.40;;;;;;4976087;28;20779;-67
2023/06/13 00:48:37;;;;;;;8.00;7.40;;;29.00;43.40;;;;;;4993445;28;20405;-67
2023/06/13 00:51:03;;;;;;;8.30;7.60;;;29.00;43.40;;;;;;4994170;28;20449;-67
2023/06/13 00:53:31;;;;;;;7.87;7.37;;;29.00;43.40;;;;;;5011772;28;20407;-67
2023/06/13 00:56:01;;;;;;;7.90;7.30;;;29.00;43.40;;;;;;4980379;28;20549;-67
2023/06/13 00:58:28;;;;;;;7.73;7.23;;;29.00;43.40;;;;;;4984926;28;20439;-67
2023/06/13 01:00:57;;;;;;;7.90;7.30;;;28.90;43.50;;;;;;4980981;28;20421;-67
2023/06/13 01:03:25;;;;;;;7.73;7.13;;;28.90;43.40;;;;;;4991877;28;20990;-68
2023/06/13 01:05:51;;;;;;;7.53;6.93;;;28.90;43.50;;;;;;5044893;23;20536;-68
2023/06/13 01:08:28;;;;;;;8.03;7.43;;;28.90;43.50;;;;;;4960270;28;20433;-68
2023/06/13 01:11:34;;;;;;;8.03;7.43;;;28.80;43.50;;;;;;4993731;28;20480;-69
2023/06/13 01:14:24;;;;;;;8.20;7.50;;;28.80;43.50;;;;;;4975459;28;20448;-69
2023/06/13 01:16:56;;;;;;;8.33;7.77;;;28.80;43.60;;;;;;4959396;28;20833;-69
2023/06/13 01:19:37;;;;;;;8.67;7.90;;;28.80;43.60;;;;;;4993230;28;20500;-69
2023/06/13 01:22:19;;;;;;;8.17;7.57;;;28.70;43.60;;;;;;4992189;28;20529;-69
2023/06/13 01:25:03;;;;;;;7.90;7.40;;;28.70;43.60;;;;;;4991877;28;20582;-69
2023/06/13 01:27:30;;;;;;;8.37;7.77;;;28.70;43.70;;;;;;4959774;28;20961;-68
2023/06/13 01:29:56;;;;;;;8.07;7.50;;;28.70;43.60;;;;;;4975197;28;20411;-70
2023/06/13 01:32:23;;;;;;;8.93;8.10;;;28.60;43.60;;;;;;4959843;28;20425;-70
2023/06/13 01:34:50;;;;;;;7.80;7.30;;;28.60;43.60;;;;;;4959562;28;20457;-70
2023/06/13 01:37:19;;;;;;;8.10;7.60;;;28.60;43.60;;;;;;4976129;28;20441;-70
2023/06/13 01:39:45;;;;;;;8.40;7.70;;;28.60;43.60;;;;;;4975001;28;20500;-70
2023/06/13 01:42:11;;;;;;;8.63;7.90;;;28.60;43.70;;;;;;4974851;28;20479;-70
2023/06/13 01:44:37;;;;;;;8.10;7.50;;;28.50;43.60;;;;;;4974557;28;20909;-70
2023/06/13 01:47:32;;;;;;;9.57;7.70;;;28.50;43.60;;;;;;4975570;28;20480;-69
2023/06/13 01:50:11;;;;;;;7.43;6.87;;;28.50;43.70;;;;;;4959570;28;20429;-69
2023/06/13 01:52:51;;;;;;;8.20;7.50;;;28.50;43.70;;;;;;4992752;28;20507;-69
2023/06/13 01:55:30;;;;;;;8.20;7.63;;;28.40;43.60;;;;;;4975311;28;20460;-69
2023/06/13 01:58:10;;;;;;;8.30;7.70;;;28.40;43.60;;;;;;4992598;28;20417;-69
2023/06/13 02:00:38;;;;;;;8.10;7.43;;;28.40;43.70;;;;;;4991711;28;20508;-69
2023/06/13 02:03:05;;;;;;;8.17;7.60;;;28.40;43.60;;;;;;4991658;28;20781;-69
2023/06/13 02:05:30;;;;;;;8.10;7.50;;;28.30;43.60;;;;;;4990633;28;20464;-69
2023/06/13 02:07:56;;;;;;;8.10;7.30;;;28.30;43.60;;;;;;4991008;28;20414;-69
2023/06/13 02:10:23;;;;;;;8.30;7.70;;;28.30;43.60;;;;;;4990938;28;20170;-69
2023/06/13 02:12:52;;;;;;;7.50;7.00;;;28.30;43.60;;;;;;4991179;28;20909;-69
2023/06/13 02:15:25;;;;;;;7.40;6.90;;;28.30;43.70;;;;;;4975507;28;20453;-69
2023/06/13 02:17:55;;;;;;;8.03;7.47;;;28.20;43.70;;;;;;4990292;28;20773;-69
2023/06/13 02:20:21;;;;;;;8.30;7.70;;;28.20;43.80;;;;;;4990664;28;20420;-69
2023/06/13 02:22:49;;;;;;;8.10;7.50;;;28.20;43.80;;;;;;4992726;28;20429;-69
2023/06/13 02:25:18;;;;;;;8.93;8.13;;;28.20;43.90;;;;;;4975524;28;20445;-69
2023/06/13 02:27:49;;;;;;;7.83;7.27;;;28.10;43.90;;;;;;4991428;28;20412;-69
2023/06/13 02:30:17;;;;;;;8.17;7.47;;;28.10;43.90;;;;;;4991344;28;20428;-68
2023/06/13 02:32:46;;;;;;;8.40;7.70;;;28.10;44.00;;;;;;4976780;28;20417;-69
2023/06/13 02:35:13;;;;;;;7.53;6.93;;;28.10;44.00;;;;;;4995035;28;20444;-69
2023/06/13 02:37:41;;;;;;;8.57;7.90;;;28.00;44.00;;;;;;4995177;28;20447;-69
2023/06/13 02:40:12;;;;;;;8.27;7.63;;;28.00;44.10;;;;;;4995670;28;20495;-69
2023/06/13 02:42:38;;;;;;;8.60;7.83;;;28.00;44.10;;;;;;4995187;28;20405;-70
2023/06/13 02:45:07;;;;;;;8.43;7.70;;;28.00;44.20;;;;;;4995158;28;20494;-69
2023/06/13 02:47:33;;;;;;;7.90;7.20;;;28.00;44.20;;;;;;4995616;28;20408;-69
2023/06/13 02:49:59;;;;;;;7.70;7.00;;;27.90;44.20;;;;;;4994241;28;20780;-69
2023/06/13 02:52:25;;;;;;;8.40;7.80;;;27.90;44.20;;;;;;4978907;28;20202;-69
2023/06/13 02:54:51;;;;;;;8.70;7.93;;;27.90;44.20;;;;;;4994747;28;20465;-69
2023/06/13 02:57:17;;;;;;;8.77;8.17;;;27.90;44.30;;;;;;4994797;28;20448;-69
2023/06/13 02:59:47;;;;;;;8.50;7.80;;;27.90;44.30;;;;;;4978874;28;20217;-69
2023/06/13 03:02:20;;;;;;;7.90;6.73;;;27.90;44.40;;;;;;4979006;28;20428;-69
2023/06/13 03:05:10;;;;;;;7.70;7.20;;;27.80;44.30;;;;;;4994631;28;20460;-69
2023/06/13 03:07:42;;;;;;;8.40;7.90;;;27.80;44.50;;;;;;4993148;28;20475;-69
2023/06/13 03:10:10;;;;;;;9.00;8.30;;;27.80;44.60;;;;;;4977973;28;20465;-69
2023/06/13 03:12:45;;;;;;;8.27;7.67;;;27.70;44.50;;;;;;4977321;28;20504;-69
2023/06/13 03:15:13;;;;;;;7.67;7.17;;;27.70;44.60;;;;;;4978526;28;20433;-69
2023/06/13 03:17:39;;;;;;;7.90;7.20;;;27.70;44.70;;;;;;4977363;28;20464;-69
2023/06/13 03:20:09;;;;;;;7.50;6.90;;;27.70;44.70;;;;;;4977622;28;20551;-69
2023/06/13 03:22:36;;;;;;;8.40;7.70;;;27.60;44.70;;;;;;4977596;28;21125;-68
2023/06/13 03:25:02;;;;;;;7.83;7.23;;;27.60;44.70;;;;;;4976191;28;20440;-69
2023/06/13 03:27:33;;;;;;;8.80;8.10;;;27.60;44.80;;;;;;4977690;28;20440;-69
2023/06/13 03:30:00;;;;;;;7.70;7.00;;;27.60;44.80;;;;;;4977512;28;20444;-69
2023/06/13 03:32:26;;;;;;;7.50;7.00;;;27.60;45.50;;;;;;4961750;28;20946;-69
2023/06/13 03:34:52;;;;;;;8.07;7.47;;;27.50;44.90;;;;;;4961532;28;20496;-69
2023/06/13 03:37:21;;;;;;;8.13;7.33;;;27.50;44.90;;;;;;4977072;28;20472;-69
2023/06/13 03:39:47;;;;;;;8.20;7.60;;;27.50;45.00;;;;;;4977199;28;20552;-69
2023/06/13 03:42:13;;;;;;;7.87;7.27;;;27.50;45.00;;;;;;4977295;28;20436;-69
2023/06/13 03:44:41;;;;;;;8.53;7.90;;;27.40;44.90;;;;;;4977354;28;20445;-69
2023/06/13 03:47:09;;;;;;;9.00;8.20;;;27.40;45.00;;;;;;4977254;28;20421;-69
2023/06/13 03:49:36;;;;;;;7.73;7.13;;;27.40;45.10;;;;;;4977420;28;20769;-69
2023/06/13 03:52:03;;;;;;;8.23;7.67;;;27.30;45.10;;;;;;4976833;28;20468;-69
2023/06/13 03:54:29;;;;;;;8.00;7.40;;;27.30;45.20;;;;;;4960753;28;21065;-69
2023/06/13 03:56:57;;;;;;;7.97;7.40;;;27.30;45.20;;;;;;4977039;28;20463;-69
2023/06/13 03:59:26;;;;;;;8.40;7.60;;;27.30;45.20;;;;;;4977607;28;20516;-69
2023/06/13 04:01:52;;;;;;;8.53;7.83;;;27.30;45.30;;;;;;4961657;28;20457;-69
2023/06/13 04:04:18;;;;;;;7.83;7.13;;;27.30;45.30;;;;;;4994399;28;20423;-69
2023/06/13 04:06:47;;;;;;;8.07;7.40;;;27.30;45.40;;;;;;4960227;28;20960;-69
2023/06/13 04:09:18;;;;;;;8.43;7.73;;;27.30;45.40;;;;;;4976960;28;20174;-69
2023/06/13 04:11:47;;;;;;;8.07;7.33;;;27.20;45.40;;;;;;4977044;28;21634;-69
2023/06/13 04:14:13;;;;;;;7.83;7.33;;;27.20;45.50;;;;;;4976422;28;20507;-69
2023/06/13 04:16:43;;;;;;;7.53;7.03;;;27.20;45.60;;;;;;4993941;28;20551;-69
2023/06/13 04:19:18;;;;;;;7.77;7.13;;;27.10;45.50;;;;;;4959360;28;20503;-69
2023/06/13 04:21:51;;;;;;;7.53;7.03;;;27.10;45.60;;;;;;4975564;28;20431;-68
2023/06/13 04:24:17;;;;;;;8.10;7.50;;;27.10;45.70;;;;;;4976225;28;20471;-69
2023/06/13 04:26:50;;;;;;;8.47;7.87;;;27.10;45.70;;;;;;4976441;28;20499;-69
2023/06/13 04:29:18;;;;;;;8.63;7.93;;;27.10;45.80;;;;;;4976345;28;20492;-69
2023/06/13 04:31:50;;;;;;;7.67;7.03;;;27.10;45.90;;;;;;4994080;28;20421;-70
2023/06/13 04:34:20;;;;;;;7.80;7.30;;;27.00;45.90;;;;;;4976368;28;20421;-69
2023/06/13 04:36:47;;;;;;;8.10;7.40;;;27.00;46.00;;;;;;4975716;28;20503;-70
2023/06/13 04:39:13;;;;;;;8.23;7.63;;;27.00;46.10;;;;;;4975829;28;20495;-69
2023/06/13 04:41:43;;;;;;;8.00;7.30;;;27.00;46.10;;;;;;4975995;28;20425;-69
2023/06/13 04:44:10;;;;;;;7.20;6.70;;;27.00;46.10;;;;;;4959898;28;20961;-69
2023/06/13 04:46:43;;;;;;;7.47;6.87;;;27.00;46.30;;;;;;4976857;28;20455;-69
2023/06/13 04:49:15;;;;;;;8.30;7.60;;;27.00;46.40;;;;;;4976230;28;20778;-69
2023/06/13 04:51:43;;;;;;;8.00;7.37;;;26.90;46.40;;;;;;4974890;28;20416;-70
2023/06/13 04:54:09;;;;;;;8.30;7.63;;;26.90;46.50;;;;;;4990399;28;20425;-69
2023/06/13 04:56:37;;;;;;;7.53;6.83;;;26.90;46.50;;;;;;4973537;28;20465;-69
2023/06/13 04:59:08;;;;;;;7.87;7.30;;;26.90;46.60;;;;;;4990289;28;20413;-69
2023/06/13 05:01:35;;;;;;;8.23;7.50;;;26.90;46.60;;;;;;4989745;28;20780;-69
2023/06/13 05:04:06;;;;;;;9.80;9.00;;;26.80;46.60;;;;;;4989671;28;20452;-69
2023/06/13 05:06:37;;;;;;;7.83;7.23;;;26.90;46.80;;;;;;4990930;28;20453;-69
2023/06/13 05:09:06;;;;;;;8.63;7.93;;;26.80;46.80;;;;;;4974982;28;20457;-70
2023/06/13 05:11:32;;;;;;;8.20;7.50;;;26.80;46.80;;;;;;4975614;28;20425;-72
2023/06/13 05:13:58;;;;;;;7.87;7.17;;;26.80;46.80;;;;;;4991857;28;20461;-68
2023/06/13 05:16:29;;;;;;;8.10;7.43;;;26.80;46.90;;;;;;4975207;28;20464;-69
2023/06/13 05:19:00;;;;;;;7.60;6.90;;;26.70;46.80;;;;;;4974735;28;20965;-69
2023/06/13 05:21:30;;;;;;;7.70;7.10;;;26.80;46.90;;;;;;4991495;28;20997;-69
2023/06/13 05:23:58;;;;;;;8.30;7.60;;;26.80;46.90;;;;;;4992655;28;20934;-69
2023/06/13 05:26:27;;;;;;;7.57;6.90;;;26.70;46.90;;;;;;4975559;28;20441;-69
2023/06/13 05:28:53;;;;;;;8.23;7.63;;;26.70;46.90;;;;;;4974963;28;20445;-69
2023/06/13 05:31:19;;;;;;;7.50;6.90;;;26.70;46.80;;;;;;4975074;28;20531;-69
2023/06/13 05:33:46;;;;;;;7.47;6.97;;;26.70;46.80;;;;;;4958520;28;20513;-69
2023/06/13 05:36:14;;;;;;;9.03;8.23;;;26.70;46.80;;;;;;4959427;28;20216;-69
2023/06/13 05:38:40;;;;;;;8.10;7.23;;;26.60;46.80;;;;;;4992541;28;20421;-69
2023/06/13 05:41:06;;;;;;;9.13;8.37;;;26.60;46.80;;;;;;4975394;28;20476;-69
2023/06/13 05:43:32;;;;;;;9.17;8.47;;;26.60;46.90;;;;;;4992673;28;20797;-70
2023/06/13 05:46:00;;;;;;;9.50;8.70;;;26.60;46.90;;;;;;4974991;28;21021;-68
2023/06/13 05:48:29;;;;;;;7.83;7.23;;;26.60;46.90;;;;;;4975309;28;20417;-69
2023/06/13 05:50:55;;;;;;;8.50;7.20;;;26.60;46.90;;;;;;4974797;28;20469;-69
2023/06/13 05:53:23;;;;;;;9.00;8.10;;;26.60;47.00;;;;;;4985038;28;20501;-69
2023/06/13 05:55:49;;;;;;;8.30;7.50;;;26.60;47.00;;;;;;4994349;28;20610;-69
2023/06/13 05:58:18;;;;;;;8.13;7.53;;;26.60;47.10;;;;;;4994347;28;20436;-69
2023/06/13 06:00:45;;;;;;;9.70;8.70;;;26.50;47.00;;;;;;4994575;28;20445;-69
2023/06/13 06:03:14;;;;;;;8.90;8.30;;;26.60;47.10;;;;;;4994688;28;20491;-69
2023/06/13 06:05:40;;;;;;;9.73;8.80;;;26.60;47.10;;;;;;4993707;28;20468;-69
2023/06/13 06:08:08;;;;;;;8.90;8.00;;;26.50;47.10;;;;;;5014070;28;20507;-71
2023/06/13 06:10:37;;;;;;;8.20;7.60;;;26.50;47.10;;;;;;5015612;28;20543;-71
2023/06/13 06:13:05;;;;;;;9.43;8.60;;;26.50;47.10;;;;;;4990626;28;20455;-73
2023/06/13 06:15:32;;;;;;;8.40;7.70;;;26.50;47.10;;;;;;4996173;28;21008;-69
2023/06/13 06:17:58;;;;;;;8.00;7.40;;;26.50;47.20;;;;;;4996294;28;20432;-69
2023/06/13 06:20:26;;;;;;;8.60;7.80;;;26.50;47.20;;;;;;4988575;28;20432;-69
2023/06/13 06:22:54;;;;;;;8.43;7.73;;;26.50;47.10;;;;;;5015396;28;20419;-69
2023/06/13 06:25:23;;;;;;;8.63;8.03;;;26.50;47.20;;;;;;4997743;28;20432;-69
2023/06/13 06:27:55;;;;;;;9.03;8.23;;;26.50;47.20;;;;;;5014237;28;20415;-69
2023/06/13 06:30:25;;;;;;;7.30;6.80;;;26.40;47.70;;;;;;4982111;28;20520;-69
2023/06/13 06:32:56;;;;;;;8.30;7.60;;;26.40;47.20;;;;;;5015557;28;20463;-69
2023/06/13 06:35:22;;;;;;;8.00;7.40;;;26.50;47.30;;;;;;4997722;28;20440;-69
2023/06/13 06:37:48;;;;;;;8.90;8.20;;;26.50;47.30;;;;;;5015189;28;20468;-69
2023/06/13 06:40:14;;;;;;;7.90;7.30;;;26.40;47.80;;;;;;4981654;28;20440;-69
2023/06/13 06:42:45;;;;;;;8.90;8.20;;;26.40;47.20;;;;;;4999704;28;20508;-69
2023/06/13 06:45:12;;;;;;;9.00;8.10;;;26.40;47.20;;;;;;4997565;28;20436;-71
2023/06/13 06:47:41;;;;;;;8.50;7.80;;;26.40;47.20;;;;;;4997388;28;20426;-71
2023/06/13 06:50:12;;;;;;;9.00;8.40;;;26.40;47.20;;;;;;5014312;28;20480;-71
2023/06/13 06:52:41;;;;;;;8.27;7.67;;;26.50;47.30;;;;;;4996791;28;20940;-71
2023/06/13 06:55:07;;;;;;;9.03;8.33;;;26.40;47.30;;;;;;4997205;28;20459;-71
2023/06/13 06:57:33;;;;;;;8.50;7.80;;;26.40;47.30;;;;;;4996999;28;20854;-71
2023/06/13 07:00:01;;;;;;;8.50;7.60;;;26.40;47.30;;;;;;4996974;28;20428;-71
2023/06/13 07:02:30;;;;;;;8.67;7.97;;;26.40;47.30;;;;;;4997462;28;20416;-71
2023/06/13 07:04:57;;;;;;;7.43;6.93;;;26.50;47.40;;;;;;4980396;28;20442;-70
2023/06/13 07:07:28;;;;;;;8.53;7.77;;;26.40;47.30;;;;;;4983135;28;20205;-71
2023/06/13 07:09:55;;;;;;;7.87;7.30;;;26.40;47.30;;;;;;4961383;28;20527;-71
2023/06/13 07:12:23;;;;;;;7.70;7.10;;;26.40;47.30;;;;;;4961328;28;20412;-71
2023/06/13 07:14:49;;;;;;;8.03;7.27;;;26.40;47.30;;;;;;4994678;28;20942;-71
2023/06/13 07:17:18;;;;;;;7.90;7.30;;;26.40;47.30;;;;;;4994495;28;20464;-71
2023/06/13 07:19:44;;;;;;;8.27;7.67;;;26.50;47.30;;;;;;4994085;28;20441;-71
2023/06/13 07:22:10;;;;;;;7.70;7.10;;;26.40;47.30;;;;;;4993367;28;20418;-71
2023/06/13 07:24:36;;;;;;;8.67;7.90;;;26.50;47.30;;;;;;4993296;28;20887;-71
2023/06/13 07:27:02;;;;;;;7.90;7.30;;;26.50;47.40;;;;;;4961048;28;20461;-71
2023/06/13 07:29:33;;;;;;;8.30;7.50;;;26.50;47.50;;;;;;4976773;28;20853;-71
2023/06/13 07:32:05;;;;;;;7.53;6.97;;;26.50;47.50;;;;;;4976757;28;20413;-71
2023/06/13 07:34:33;;;;;;;8.20;7.60;;;26.50;47.60;;;;;;4976968;28;20493;-71
2023/06/13 07:36:59;;;;;;;8.20;7.63;;;26.50;47.60;;;;;;4976711;28;20484;-71
2023/06/13 07:39:25;;;;;;;8.70;7.90;;;26.50;47.60;;;;;;4994353;28;20421;-71
2023/06/13 07:41:51;;;;;;;8.47;7.77;;;26.50;47.60;;;;;;4993835;28;20449;-71
2023/06/13 07:44:18;;;;;;;8.63;7.73;;;26.50;47.60;;;;;;4993734;28;20493;-71
2023/06/13 07:46:47;;;;;;;10.00;9.20;;;26.60;47.70;;;;;;4976900;28;20445;-71
2023/06/13 07:49:14;;;;;;;8.33;7.73;;;26.60;47.70;;;;;;4994188;28;20422;-71
2023/06/13 07:51:40;;;;;;;8.87;8.20;;;26.60;47.80;;;;;;4993937;28;20433;-71
2023/06/13 07:54:06;;;;;;;9.87;8.97;;;26.60;47.80;;;;;;4976667;28;20523;-71
2023/06/13 07:56:35;;;;;;;8.47;7.93;;;26.60;47.80;;;;;;4993623;28;20468;-71
2023/06/13 07:59:03;;;;;;;9.67;8.90;;;26.60;47.90;;;;;;4960329;28;20433;-71
2023/06/13 08:01:34;;;;;;;8.43;7.73;;;26.60;47.80;;;;;;4993342;28;20547;-71
2023/06/13 08:04:03;;;;;;;8.10;7.50;;;26.60;47.80;;;;;;4945115;28;20468;-71
2023/06/13 08:06:30;;;;;;;8.40;7.80;;;26.70;47.90;;;;;;4960205;28;20465;-71
2023/06/13 08:08:56;;;;;;;9.30;8.60;;;26.70;47.80;;;;;;4992379;28;20433;-71
2023/06/13 08:11:25;;;;;;;8.47;7.77;;;26.70;47.70;;;;;;4959866;28;20495;-71
2023/06/13 08:13:53;;;;;;;8.90;8.20;;;26.70;47.70;;;;;;4993097;28;20209;-71
2023/06/13 08:16:19;;;;;;;9.30;8.60;;;26.70;47.60;;;;;;4975903;28;20469;-71
2023/06/13 08:18:46;;;;;;;7.77;7.27;;;26.80;47.50;;;;;;4976220;28;20823;-71
2023/06/13 08:21:12;;;;;;;8.10;7.50;;;26.80;47.40;;;;;;4976131;28;20268;-70
2023/06/13 08:23:40;;;;;;;8.70;8.10;;;26.80;47.30;;;;;;4993921;28;20464;-70
2023/06/13 08:26:08;;;;;;;8.33;7.83;;;26.80;47.30;;;;;;4993674;28;20448;-70
2023/06/13 08:28:37;;;;;;;8.87;8.00;;;26.80;47.20;;;;;;4992747;28;20457;-70
2023/06/13 08:31:03;;;;;;;8.17;7.47;;;26.90;47.20;;;;;;4992885;28;20414;-70
2023/06/13 08:33:32;;;;;;;8.70;8.10;;;26.90;47.30;;;;;;4992694;28;20432;-70
2023/06/13 08:36:00;;;;;;;8.23;7.63;;;26.90;47.20;;;;;;4993562;28;20491;-70
2023/06/13 08:38:29;;;;;;;8.53;7.83;;;27.00;47.20;;;;;;4976241;28;20417;-69
2023/06/13 08:40:59;;;;;;;8.07;7.50;;;27.00;47.10;;;;;;4993658;28;20429;-69
2023/06/13 08:43:28;;;;;;;8.13;7.47;;;27.00;47.10;;;;;;4992604;28;20790;-69
2023/06/13 08:45:56;;;;;;;8.77;7.97;;;27.00;46.90;;;;;;4993586;28;20576;-69
2023/06/13 08:48:22;;;;;;;8.63;8.03;;;27.00;47.00;;;;;;4993458;28;20452;-69
2023/06/13 08:50:48;;;;;;;8.93;8.33;;;27.00;46.90;;;;;;4960073;28;20429;-69
2023/06/13 08:53:17;;;;;;;8.70;8.10;;;27.10;47.00;;;;;;4992370;28;20417;-70
2023/06/13 08:55:44;;;;;;;9.17;8.30;;;27.10;46.90;;;;;;4992080;28;20425;-70
2023/06/13 08:58:13;;;;;;;8.60;8.07;;;27.10;46.80;;;;;;4992149;28;21157;-69
2023/06/13 09:00:40;;;;;;;7.80;7.20;;;27.10;46.70;;;;;;4975674;28;20901;-70
2023/06/13 09:03:13;;;;;;;8.40;7.80;;;27.20;46.70;;;;;;4993074;28;20418;-70
2023/06/13 09:05:42;;;;;;;8.73;8.03;;;27.20;46.80;;;;;;4975550;28;20460;-70
2023/06/13 09:08:12;;;;;;;8.20;7.67;;;27.20;46.80;;;;;;4992898;28;20437;-70
2023/06/13 09:10:41;;;;;;;8.87;8.17;;;27.20;46.80;;;;;;4992079;28;20907;-69
2023/06/13 09:13:12;;;;;;;8.60;7.90;;;27.30;46.80;;;;;;4975765;28;20421;-69
2023/06/13 09:15:40;;;;;;;9.43;8.67;;;27.30;46.80;;;;;;4975115;28;20487;-71
2023/06/13 09:18:12;;;;;;;8.97;8.27;;;27.30;46.80;;;;;;4959956;28;20444;-71
2023/06/13 09:20:39;;;;;;;7.90;7.40;;;27.30;46.70;;;;;;4992970;28;20409;-71
2023/06/13 09:23:07;;;;;;;8.40;7.80;;;27.30;46.70;;;;;;4991782;28;20424;-71
2023/06/13 09:25:36;;;;;;;7.93;7.43;;;27.40;46.70;;;;;;4959573;28;20516;-71
2023/06/13 09:28:33;;;;;;;8.50;8.00;;;27.40;46.60;;;;;;4975255;28;20429;-71
2023/06/13 09:31:04;;;;;;;9.80;8.60;;;27.40;46.60;;;;;;4976008;28;20414;-71
2023/06/13 09:33:33;;;;;;;8.50;7.80;;;27.50;46.40;;;;;;4975744;28;21048;-71
2023/06/13 09:36:02;;;;;;;8.53;7.93;;;27.50;46.50;;;;;;4975123;28;20477;-71
2023/06/13 09:38:34;;;;;;;8.80;8.20;;;27.50;46.40;;;;;;4975994;28;20500;-71
2023/06/13 09:41:11;;;;;;;8.60;8.00;;;27.50;46.50;;;;;;4991476;28;20441;-71
2023/06/13 09:43:38;;;;;;;9.83;9.13;;;27.50;46.50;;;;;;4992715;28;20413;-71
2023/06/13 09:46:10;;;;;;;8.83;8.07;;;27.60;46.50;;;;;;4975143;28;20499;-71
2023/06/13 09:48:45;;;;;;;8.57;7.87;;;27.60;46.50;;;;;;4975217;28;20479;-71
2023/06/13 09:51:11;;;;;;;8.40;7.80;;;27.70;46.50;;;;;;4992161;28;20417;-71
2023/06/13 09:53:39;;;;;;;7.80;7.30;;;27.70;46.40;;;;;;4991845;28;20428;-71
2023/06/13 09:56:11;;;;;;;8.80;8.20;;;27.70;46.30;;;;;;4991504;28;20474;-71
2023/06/13 09:58:40;;;;;;;8.00;7.40;;;27.80;46.40;;;;;;4991934;28;20484;-71
2023/06/13 10:01:12;;;;;;;8.80;8.00;;;27.80;46.30;;;;;;4991723;28;20505;-71
2023/06/13 10:03:41;;;;;;;9.67;8.97;;;27.80;46.20;;;;;;4974340;28;20441;-71
2023/06/13 10:06:07;;;;;;;9.60;8.80;;;27.90;46.10;;;;;;4973940;28;20879;-71
2023/06/13 10:08:34;;;;;;;9.10;8.20;;;27.90;46.10;;;;;;4991634;28;20417;-71
2023/06/13 10:11:10;;;;;;;8.27;7.67;;;27.90;46.20;;;;;;4990235;28;20459;-71
2023/06/13 10:13:51;;;;;;;9.60;8.77;;;28.00;46.20;;;;;;4973961;28;20476;-71
2023/06/13 10:16:20;;;;;;;8.40;7.90;;;28.00;46.10;;;;;;4973951;28;20477;-71
2023/06/13 10:18:48;;;;;;;9.00;8.30;;;28.00;46.10;;;;;;4991438;28;20452;-71
2023/06/13 10:21:16;;;;;;;9.50;8.60;;;28.00;45.90;;;;;;4990533;28;20444;-71
2023/06/13 10:23:49;;;;;;;9.50;8.80;;;28.00;45.90;;;;;;4974481;28;20990;-71
2023/06/13 10:26:34;;;;;;;9.30;8.70;;;28.10;46.00;;;;;;4974390;28;20528;-71
2023/06/13 10:29:29;;;;;;;8.60;8.00;;;28.10;46.10;;;;;;4991274;28;20417;-71
2023/06/13 10:32:19;;;;;;;8.57;8.07;;;28.10;46.00;;;;;;4957764;28;20429;-71
2023/06/13 10:35:01;;;;;;;9.13;8.53;;;28.10;46.00;;;;;;4974018;28;20926;-71
2023/06/13 10:37:53;;;;;;;9.53;8.90;;;28.20;46.20;;;;;;4973622;28;20519;-71
2023/06/13 10:40:48;;;;;;;9.37;8.47;;;28.20;46.10;;;;;;4990505;28;20519;-71
2023/06/13 10:43:26;;;;;;;8.70;8.20;;;28.20;46.00;;;;;;4974380;28;20532;-71
2023/06/13 10:45:59;;;;;;;9.37;8.57;;;28.30;46.00;;;;;;4958213;28;20441;-71
2023/06/13 10:48:40;;;;;;;9.13;8.53;;;28.30;45.90;;;;;;4973959;28;20440;-71
2023/06/13 10:51:11;;;;;;;9.50;8.80;;;28.30;45.80;;;;;;4989922;28;20445;-71
2023/06/13 10:53:39;;;;;;;8.40;7.70;;;28.40;46.40;;;;;;4974903;28;20507;-71
2023/06/13 10:56:08;;;;;;;9.17;8.57;;;28.40;45.70;;;;;;4977093;28;20822;-71
2023/06/13 10:58:35;;;;;;;9.20;8.50;;;28.40;45.70;;;;;;4977964;28;21082;-71
2023/06/13 11:01:30;;;;;;;9.20;8.50;;;28.40;45.40;;;;;;4994859;28;20957;-71
2023/06/13 11:04:14;;;;;;;10.00;9.30;;;28.50;45.30;;;;;;4993915;28;20435;-71
2023/06/13 11:06:47;;;;;;;9.10;8.40;;;28.50;45.40;;;;;;4994269;28;20482;-71
2023/06/13 11:09:18;;;;;;;9.47;8.77;;;28.50;45.20;;;;;;4961170;28;20425;-71
2023/06/13 11:11:50;;;;;;;9.10;8.50;;;28.60;45.20;;;;;;4961821;28;20456;-71
2023/06/13 11:14:26;;;;;;;9.40;8.70;;;28.60;45.10;;;;;;4977121;28;20441;-71
2023/06/13 11:16:53;;;;;;;9.87;9.17;;;28.60;45.00;;;;;;4976729;28;20467;-71
2023/06/13 11:19:25;;;;;;;9.67;8.97;;;28.60;45.00;;;;;;4976850;28;20451;-71
2023/06/13 11:22:03;;;;;;;9.30;8.60;;;28.70;44.90;;;;;;4944853;28;20425;-71
2023/06/13 11:24:33;;;;;;;9.50;8.90;;;28.70;44.90;;;;;;4992910;28;21006;-71
2023/06/13 11:27:06;;;;;;;9.77;8.97;;;28.70;44.80;;;;;;4960757;28;20422;-71
2023/06/13 11:29:33;;;;;;;8.57;8.07;;;28.70;44.70;;;;;;4960656;28;20425;-71
2023/06/13 11:32:04;;;;;;;9.07;8.40;;;28.80;44.60;;;;;;4976712;28;20457;-71
2023/06/13 11:34:34;;;;;;;9.47;8.67;;;28.80;44.40;;;;;;4976856;28;20919;-71
2023/06/13 11:37:26;;;;;;;9.43;8.53;;;28.80;44.50;;;;;;4976448;28;20477;-71
2023/06/13 11:39:56;;;;;;;9.60;9.00;;;28.90;44.40;;;;;;4966044;28;20802;-71
2023/06/13 11:42:24;;;;;;;9.40;8.70;;;28.90;44.30;;;;;;4976361;28;20786;-71
2023/06/13 11:44:52;;;;;;;10.03;9.33;;;28.90;44.20;;;;;;4993787;28;20457;-71
2023/06/13 11:47:19;;;;;;;8.87;8.23;;;29.00;44.20;;;;;;4960323;28;20429;-71
2023/06/13 11:49:58;;;;;;;8.10;7.60;;;29.00;44.20;;;;;;4961262;28;20425;-71
2023/06/13 11:52:26;;;;;;;9.37;8.50;;;29.00;44.20;;;;;;4960338;28;20864;-71
2023/06/13 11:54:54;;;;;;;10.10;9.40;;;29.00;44.20;;;;;;4976107;28;20447;-71
2023/06/13 11:57:23;;;;;;;10.27;9.57;;;29.10;44.80;;;;;;4975985;28;20474;-71
2023/06/13 11:59:59;;;;;;;9.13;8.53;;;29.10;44.10;;;;;;4960277;28;20425;-71
2023/06/13 12:02:27;;;;;;;9.10;8.40;;;29.10;44.00;;;;;;4993239;28;20452;-71
2023/06/13 12:04:53;;;;;;;9.67;8.87;;;29.20;44.00;;;;;;4958478;28;20441;-71
2023/06/13 12:07:20;;;;;;;9.77;9.07;;;29.20;44.00;;;;;;4993195;28;20421;-71
2023/06/13 12:09:48;;;;;;;8.87;8.27;;;29.20;43.90;;;;;;4960027;28;20432;-71
2023/06/13 12:12:22;;;;;;;9.63;8.83;;;29.30;43.90;;;;;;4975079;28;20457;-71
2023/06/13 12:14:54;;;;;;;9.10;8.30;;;29.30;43.80;;;;;;4975346;28;20433;-71
2023/06/13 12:17:23;;;;;;;10.13;9.37;;;29.30;44.00;;;;;;4959229;28;20514;-71
2023/06/13 12:20:06;;;;;;;9.40;8.60;;;29.30;43.90;;;;;;4975558;28;20448;-71
2023/06/13 12:22:32;;;;;;;11.07;10.00;;;29.40;43.70;;;;;;4971282;28;20473;-71
2023/06/13 12:24:58;;;;;;;9.00;8.30;;;29.40;43.70;;;;;;4972192;28;20490;-71
2023/06/13 12:27:27;;;;;;;8.60;8.00;;;29.40;43.60;;;;;;4956403;28;20442;-71
2023/06/13 12:29:54;;;;;;;9.33;8.60;;;29.40;43.50;;;;;;4939975;28;20791;-71
2023/06/13 12:32:25;;;;;;;10.17;9.27;;;29.50;43.50;;;;;;4972190;28;21014;-71
2023/06/13 12:34:53;;;;;;;9.87;9.17;;;29.50;43.30;;;;;;4956103;28;20541;-71
2023/06/13 12:37:25;;;;;;;9.07;8.37;;;29.50;43.60;;;;;;4971719;28;20834;-71
2023/06/13 12:40:15;;;;;;;9.10;8.40;;;29.50;43.30;;;;;;4972145;28;20418;-71
2023/06/13 12:42:45;;;;;;;9.47;8.77;;;29.60;43.40;;;;;;4949146;28;20821;-71
2023/06/13 12:45:15;;;;;;;9.93;9.23;;;29.60;43.40;;;;;;4992661;28;20444;-71
2023/06/13 12:47:41;;;;;;;8.40;7.80;;;29.60;43.40;;;;;;4975652;28;20425;-71
2023/06/13 12:50:10;;;;;;;9.30;8.70;;;29.60;43.20;;;;;;4959045;28;20919;-71
2023/06/13 12:52:39;;;;;;;9.50;8.90;;;29.70;43.80;;;;;;4974910;28;20297;-71
2023/06/13 12:55:05;;;;;;;8.33;7.83;;;29.70;43.10;;;;;;4974820;28;20459;-71
2023/06/13 12:57:33;;;;;;;10.17;9.37;;;29.80;43.00;;;;;;4992233;28;20917;-71
2023/06/13 13:00:00;;;;;;;9.27;8.33;;;29.80;42.90;;;;;;4991632;28;20954;-71